Time;durP1;ratioP1;P1;durP2;ratioP2;P2;SDS_P1;SDS_P2;PMS_P1;PMS_P2;Temp;Humidity;BMP_temperature;BMP_pressure;BME280_temperature;BME280_humidity;BME280_pressure;Samples;Min_cycle;Max_cycle;Signal;HPM_P1;HPM_P2
2021/04/29 00:00:23;;;;;;;6.47;2.40;;;14.00;91.50;;;;;;5009249;28;20180;-65
2021/04/29 00:02:48;;;;;;;2.70;2.20;;;13.90;92.70;;;;;;4991919;28;20272;-65
2021/04/29 00:05:19;;;;;;;4.73;2.73;;;13.80;94.50;;;;;;4991986;28;20177;-65
2021/04/29 00:07:44;;;;;;;3.00;2.70;;;13.60;95.40;;;;;;4991682;28;20244;-65
2021/04/29 00:10:14;;;;;;;3.43;2.43;;;13.50;97.50;;;;;;4991829;28;20322;-65
2021/04/29 00:12:40;;;;;;;3.00;2.63;;;13.40;99.90;;;;;;5010658;28;20203;-65
2021/04/29 00:15:07;;;;;;;2.53;2.33;;;13.30;99.90;;;;;;5011614;28;20168;-65
2021/04/29 00:17:33;;;;;;;3.07;2.77;;;13.20;99.90;;;;;;4995325;28;20184;-65
2021/04/29 00:19:59;;;;;;;6.80;2.77;;;13.20;99.90;;;;;;4991536;28;20231;-64
2021/04/29 00:22:24;;;;;;;4.07;2.80;;;13.10;99.90;;;;;;5007561;28;20203;-65
2021/04/29 00:24:50;;;;;;;4.57;2.87;;;13.10;99.90;;;;;;5014532;28;20181;-65
2021/04/29 00:27:16;;;;;;;4.10;2.93;;;13.00;99.90;;;;;;5000725;28;20203;-64
2021/04/29 00:29:41;;;;;;;3.17;2.70;;;13.00;99.90;;;;;;4995248;28;20249;-64
2021/04/29 00:32:07;;;;;;;4.20;2.97;;;13.00;99.90;;;;;;5007706;28;20239;-65
2021/04/29 00:34:33;;;;;;;5.57;3.07;;;12.90;99.90;;;;;;4998358;28;20201;-65
2021/04/29 00:36:58;;;;;;;3.50;3.20;;;12.80;99.90;;;;;;5006092;28;20184;-65
2021/04/29 00:39:24;;;;;;;7.00;3.20;;;12.80;99.90;;;;;;5014991;28;20248;-65
2021/04/29 00:41:50;;;;;;;6.57;3.87;;;12.70;99.90;;;;;;5005028;28;20333;-65
2021/04/29 00:44:16;;;;;;;4.57;3.43;;;12.60;99.90;;;;;;4994562;28;20212;-64
2021/04/29 00:46:42;;;;;;;7.30;3.33;;;12.70;99.90;;;;;;5002505;28;20204;-65
2021/04/29 00:49:07;;;;;;;4.90;3.37;;;12.70;99.90;;;;;;5014771;28;20199;-64
2021/04/29 00:51:33;;;;;;;3.93;3.13;;;12.60;99.90;;;;;;5008370;28;20279;-64
2021/04/29 00:53:59;;;;;;;9.00;3.77;;;12.60;99.90;;;;;;5004528;28;20224;-64
2021/04/29 00:56:25;;;;;;;4.30;3.27;;;12.60;99.90;;;;;;4994228;28;20642;-64
2021/04/29 00:58:52;;;;;;;6.27;2.93;;;12.60;99.90;;;;;;4995571;28;20181;-64
2021/04/29 01:01:19;;;;;;;4.60;2.97;;;12.60;99.90;;;;;;5014227;28;20207;-64
2021/04/29 01:04:00;;;;;;;5.07;3.30;;;12.60;99.90;;;;;;5014341;28;20271;-64
2021/04/29 01:06:37;;;;;;;5.47;3.37;;;12.60;99.90;;;;;;4996104;28;20598;-65
2021/04/29 01:09:11;;;;;;;6.87;3.07;;;12.70;99.90;;;;;;4995703;28;20779;-65
2021/04/29 01:11:40;;;;;;;5.83;3.20;;;12.70;99.90;;;;;;5013817;28;20278;-65
2021/04/29 01:14:06;;;;;;;4.70;3.23;;;12.80;99.90;;;;;;5013221;28;20171;-65
2021/04/29 01:16:33;;;;;;;7.50;3.43;;;12.80;99.90;;;;;;4994721;28;20200;-65
2021/04/29 01:19:00;;;;;;;4.43;3.40;;;12.80;99.90;;;;;;4994664;28;20337;-65
2021/04/29 01:21:28;;;;;;;4.40;3.63;;;12.80;99.90;;;;;;4997924;28;20196;-65
2021/04/29 01:24:11;;;;;;;7.17;4.20;;;12.90;99.90;;;;;;5013861;28;20200;-65
2021/04/29 01:26:55;;;;;;;8.00;4.03;;;12.90;99.90;;;;;;4994555;28;20173;-65
2021/04/29 01:29:24;;;;;;;5.10;4.20;;;13.00;99.90;;;;;;4995512;28;20200;-65
2021/04/29 01:31:52;;;;;;;5.93;4.83;;;13.00;99.90;;;;;;5013515;28;20609;-65
2021/04/29 01:34:19;;;;;;;5.83;4.40;;;13.00;99.90;;;;;;5013618;28;20531;-65
2021/04/29 01:36:47;;;;;;;8.27;4.97;;;13.10;99.90;;;;;;4994332;28;20169;-65
2021/04/29 01:39:14;;;;;;;8.07;4.50;;;13.20;99.90;;;;;;4994261;28;20169;-65
2021/04/29 01:41:43;;;;;;;5.93;5.23;;;13.10;99.90;;;;;;5012134;28;20681;-65
2021/04/29 01:44:10;;;;;;;7.37;5.13;;;13.10;99.90;;;;;;5013408;28;20193;-65
2021/04/29 01:46:37;;;;;;;8.00;4.77;;;13.20;99.90;;;;;;4995757;28;20185;-64
2021/04/29 01:49:04;;;;;;;7.37;4.83;;;13.20;99.90;;;;;;4993835;28;20270;-65
2021/04/29 01:51:31;;;;;;;8.10;5.00;;;13.20;99.90;;;;;;5009513;28;20313;-65
2021/04/29 01:54:00;;;;;;;6.73;5.07;;;13.20;99.90;;;;;;5013224;28;20176;-65
2021/04/29 01:56:26;;;;;;;7.50;4.90;;;13.30;99.90;;;;;;4998227;28;20180;-65
2021/04/29 01:58:52;;;;;;;13.57;5.13;;;13.30;99.90;;;;;;4993688;28;20267;-65
2021/04/29 02:01:17;;;;;;;7.50;5.00;;;13.30;99.90;;;;;;5006306;28;20287;-65
2021/04/29 02:03:43;;;;;;;5.57;5.07;;;13.30;99.90;;;;;;5013214;28;20177;-65
2021/04/29 02:06:09;;;;;;;5.90;5.30;;;13.40;99.90;;;;;;5001496;28;20195;-64
2021/04/29 02:08:35;;;;;;;6.67;5.00;;;13.30;99.90;;;;;;4994294;28;20205;-67
2021/04/29 02:11:02;;;;;;;7.20;4.63;;;13.40;99.90;;;;;;5004068;28;20227;-70
2021/04/29 02:13:30;;;;;;;5.80;5.30;;;13.40;99.90;;;;;;5014184;28;20693;-68
2021/04/29 02:16:00;;;;;;;13.23;5.73;;;13.40;99.90;;;;;;5004922;28;20596;-68
2021/04/29 02:18:27;;;;;;;8.50;4.80;;;13.30;99.90;;;;;;4994925;28;20176;-66
2021/04/29 02:20:54;;;;;;;5.97;4.60;;;13.40;99.90;;;;;;5001764;28;20202;-68
2021/04/29 02:23:23;;;;;;;7.30;4.87;;;13.30;99.90;;;;;;5001811;28;20196;-69
2021/04/29 02:25:54;;;;;;;8.60;5.07;;;13.30;99.90;;;;;;5000897;28;20179;-68
2021/04/29 02:28:21;;;;;;;8.37;5.27;;;13.30;99.90;;;;;;5013008;28;20199;-69
2021/04/29 02:30:48;;;;;;;11.00;5.53;;;13.30;99.90;;;;;;5009949;28;20845;-70
2021/04/29 02:33:15;;;;;;;7.40;5.90;;;13.30;99.90;;;;;;5014077;28;20192;-68
2021/04/29 02:35:41;;;;;;;7.67;5.80;;;13.30;99.90;;;;;;5009190;28;20678;-68
2021/04/29 02:38:08;;;;;;;12.53;5.80;;;13.20;99.90;;;;;;4994230;28;20183;-68
2021/04/29 02:40:33;;;;;;;8.60;5.50;;;13.20;99.90;;;;;;4996847;28;20190;-68
2021/04/29 02:42:59;;;;;;;7.17;5.50;;;13.20;99.90;;;;;;5012846;28;20192;-68
2021/04/29 02:45:27;;;;;;;8.23;6.33;;;13.10;99.90;;;;;;5011875;28;20191;-68
2021/04/29 02:47:55;;;;;;;9.17;6.67;;;13.10;99.90;;;;;;4993262;28;20204;-67
2021/04/29 02:50:24;;;;;;;14.53;7.53;;;13.10;99.90;;;;;;4993822;28;20165;-67
2021/04/29 02:52:52;;;;;;;7.43;6.60;;;13.00;99.90;;;;;;5013033;28;20188;-67
2021/04/29 02:55:19;;;;;;;8.70;6.53;;;13.00;99.90;;;;;;5012638;28;20195;-65
2021/04/29 02:57:45;;;;;;;9.23;6.17;;;12.90;99.90;;;;;;4997640;28;20173;-68
2021/04/29 03:00:15;;;;;;;9.23;6.13;;;12.90;99.90;;;;;;4992150;28;20204;-68
2021/04/29 03:02:41;;;;;;;8.47;6.90;;;12.90;99.90;;;;;;5010998;28;20208;-68
2021/04/29 03:05:09;;;;;;;10.63;7.00;;;12.90;99.90;;;;;;5013522;28;20176;-68
2021/04/29 03:07:36;;;;;;;12.13;7.13;;;12.90;99.90;;;;;;4996356;28;20230;-69
2021/04/29 03:10:02;;;;;;;8.03;6.63;;;12.80;99.90;;;;;;4993509;28;20236;-69
2021/04/29 03:12:27;;;;;;;8.73;6.27;;;12.80;99.90;;;;;;5008877;28;20211;-66
2021/04/29 03:14:53;;;;;;;10.67;7.53;;;12.80;99.90;;;;;;5013319;28;20160;-68
2021/04/29 03:17:18;;;;;;;10.77;6.90;;;12.70;99.90;;;;;;4998912;28;20701;-68
2021/04/29 03:19:44;;;;;;;10.27;7.53;;;12.80;99.90;;;;;;4993345;28;20192;-67
2021/04/29 03:22:10;;;;;;;12.83;7.57;;;12.70;99.90;;;;;;5002216;28;20935;-69
2021/04/29 03:24:36;;;;;;;8.17;6.70;;;12.70;99.90;;;;;;5009319;28;20200;-67
2021/04/29 03:27:02;;;;;;;12.83;8.10;;;12.70;99.90;;;;;;5002444;28;20263;-66
2021/04/29 03:29:27;;;;;;;8.53;7.63;;;12.70;99.90;;;;;;4993698;28;20204;-66
2021/04/29 03:31:53;;;;;;;13.33;8.23;;;12.70;99.90;;;;;;5001303;28;20188;-69
2021/04/29 03:34:18;;;;;;;14.10;7.50;;;12.70;99.90;;;;;;5013051;28;20177;-68
2021/04/29 03:36:44;;;;;;;10.50;9.17;;;12.60;99.90;;;;;;5006258;28;20400;-67
2021/04/29 03:39:10;;;;;;;13.03;8.60;;;12.60;99.90;;;;;;4993124;28;20185;-68
2021/04/29 03:41:35;;;;;;;12.13;9.30;;;12.60;99.90;;;;;;4997710;28;20252;-67
2021/04/29 03:44:01;;;;;;;9.30;8.03;;;12.60;99.90;;;;;;5011497;28;20172;-65
2021/04/29 03:46:26;;;;;;;11.87;8.80;;;12.60;99.90;;;;;;5007782;28;20177;-70
2021/04/29 03:48:52;;;;;;;14.23;8.93;;;12.60;99.90;;;;;;4993303;28;20200;-67
2021/04/29 03:51:18;;;;;;;9.47;7.93;;;12.50;99.90;;;;;;4992756;28;20212;-67
2021/04/29 03:53:43;;;;;;;13.10;8.53;;;12.50;99.90;;;;;;5012610;28;20538;-67
2021/04/29 03:56:09;;;;;;;13.40;9.37;;;12.40;99.90;;;;;;5012277;28;20187;-64
2021/04/29 03:58:34;;;;;;;11.20;8.17;;;12.40;99.90;;;;;;4992843;28;20181;-65
2021/04/29 04:01:00;;;;;;;10.93;8.37;;;12.40;99.90;;;;;;4995377;28;20197;-64
2021/04/29 04:03:25;;;;;;;12.83;8.53;;;12.40;99.90;;;;;;5013579;28;20173;-65
2021/04/29 04:05:51;;;;;;;14.73;9.67;;;12.40;99.90;;;;;;5015295;28;20183;-65
2021/04/29 04:08:16;;;;;;;13.07;10.00;;;12.40;99.90;;;;;;4999089;28;20200;-64
2021/04/29 04:10:42;;;;;;;11.23;8.57;;;12.30;99.90;;;;;;4995351;28;20223;-64
2021/04/29 04:13:16;;;;;;;11.90;9.97;;;12.30;99.90;;;;;;5009726;28;20194;-65
2021/04/29 04:15:42;;;;;;;15.60;10.73;;;12.30;99.90;;;;;;5015351;28;20612;-64
2021/04/29 04:18:08;;;;;;;14.50;9.50;;;12.20;99.90;;;;;;5001345;28;20185;-64
2021/04/29 04:20:33;;;;;;;26.63;13.73;;;12.20;99.90;;;;;;4995549;28;20608;-64
2021/04/29 04:22:59;;;;;;;14.33;9.17;;;12.20;99.90;;;;;;4996595;28;20211;-64
2021/04/29 04:25:24;;;;;;;12.40;8.97;;;12.10;99.90;;;;;;5005185;28;20705;-64
2021/04/29 04:27:50;;;;;;;10.97;8.93;;;12.10;99.90;;;;;;4995124;28;20205;-65
2021/04/29 04:30:16;;;;;;;19.17;10.60;;;12.10;99.90;;;;;;4998857;28;20711;-64
2021/04/29 04:32:42;;;;;;;17.20;11.27;;;12.10;99.90;;;;;;5015045;28;20250;-64
2021/04/29 04:35:09;;;;;;;11.50;9.37;;;12.00;99.90;;;;;;5012042;28;20184;-65
2021/04/29 04:37:34;;;;;;;13.93;11.33;;;12.00;99.90;;;;;;4995240;28;20173;-64
2021/04/29 04:40:00;;;;;;;17.70;11.60;;;12.00;99.90;;;;;;4995519;28;20657;-64
2021/04/29 04:42:26;;;;;;;15.77;10.70;;;11.90;99.90;;;;;;5014721;28;20188;-65
2021/04/29 04:44:51;;;;;;;14.83;11.07;;;11.90;99.90;;;;;;5014729;28;20169;-64
2021/04/29 04:47:17;;;;;;;14.93;11.13;;;11.90;99.90;;;;;;4995735;28;20173;-64
2021/04/29 04:49:43;;;;;;;15.73;12.27;;;11.80;99.90;;;;;;4994886;28;20255;-64
2021/04/29 04:52:09;;;;;;;16.37;11.90;;;11.80;99.90;;;;;;5011850;28;20280;-64
2021/04/29 04:54:35;;;;;;;17.20;12.33;;;11.70;99.90;;;;;;5014542;28;20179;-65
2021/04/29 04:57:01;;;;;;;15.53;12.07;;;11.60;99.90;;;;;;4998834;28;20661;-64
2021/04/29 04:59:26;;;;;;;17.73;12.67;;;11.50;99.90;;;;;;4994903;28;20173;-64
2021/04/29 05:01:52;;;;;;;17.93;13.43;;;11.50;99.90;;;;;;5007945;28;20204;-64
2021/04/29 05:04:18;;;;;;;18.10;13.70;;;11.50;99.90;;;;;;5014324;28;20172;-64
2021/04/29 05:06:43;;;;;;;23.10;15.80;;;11.40;99.90;;;;;;5001949;28;20172;-64
2021/04/29 05:09:09;;;;;;;21.33;15.13;;;11.40;99.90;;;;;;4994136;28;20211;-65
2021/04/29 05:11:34;;;;;;;20.97;15.30;;;11.40;99.90;;;;;;5004431;28;20214;-64
2021/04/29 05:14:00;;;;;;;21.90;16.37;;;11.40;99.90;;;;;;5013971;28;20191;-64
2021/04/29 05:16:26;;;;;;;20.83;16.40;;;11.40;99.90;;;;;;5005339;28;20251;-64
2021/04/29 05:18:52;;;;;;;23.87;16.70;;;11.40;99.90;;;;;;4994420;28;20204;-65
2021/04/29 05:21:17;;;;;;;29.80;18.30;;;11.50;99.90;;;;;;5001023;28;20208;-64
2021/04/29 05:23:46;;;;;;;25.73;16.43;;;11.40;99.90;;;;;;5014013;28;20646;-65
2021/04/29 05:26:11;;;;;;;26.43;16.83;;;11.40;99.90;;;;;;5006636;28;20698;-63
2021/04/29 05:28:37;;;;;;;23.63;18.33;;;11.30;99.90;;;;;;5003371;28;20291;-64
2021/04/29 05:31:03;;;;;;;25.27;17.77;;;11.40;99.90;;;;;;5009207;28;20670;-65
2021/04/29 05:33:28;;;;;;;26.17;18.13;;;11.50;99.90;;;;;;4994334;28;20180;-65
2021/04/29 05:35:54;;;;;;;24.47;19.30;;;11.50;99.90;;;;;;4995863;28;20207;-64
2021/04/29 05:38:19;;;;;;;25.27;17.17;;;11.60;99.90;;;;;;5013829;28;20271;-65
2021/04/29 05:40:45;;;;;;;17.10;12.17;;;11.50;99.90;;;;;;5012450;28;20184;-64
2021/04/29 05:43:11;;;;;;;29.10;19.00;;;11.50;99.90;;;;;;4994256;28;20173;-65
2021/04/29 05:45:37;;;;;;;32.20;20.43;;;11.40;99.90;;;;;;4993680;28;20260;-64
2021/04/29 05:48:03;;;;;;;27.87;19.37;;;11.50;99.90;;;;;;5011881;28;20203;-65
2021/04/29 05:50:28;;;;;;;30.93;19.47;;;11.50;99.90;;;;;;5011500;28;20310;-64
2021/04/29 05:52:54;;;;;;;25.13;19.30;;;11.60;99.90;;;;;;5012686;28;20204;-64
2021/04/29 05:55:19;;;;;;;30.30;20.63;;;11.70;99.90;;;;;;5013579;28;20694;-64
2021/04/29 05:57:45;;;;;;;31.83;21.10;;;11.80;99.90;;;;;;4996661;28;20193;-65
2021/04/29 06:00:11;;;;;;;30.00;21.37;;;11.80;99.90;;;;;;4993282;28;20657;-64
2021/04/29 06:02:37;;;;;;;33.13;21.03;;;11.90;99.90;;;;;;5006699;28;20204;-65
2021/04/29 06:05:03;;;;;;;28.63;20.93;;;12.00;99.90;;;;;;5012926;28;20183;-64
2021/04/29 06:07:29;;;;;;;29.87;21.30;;;12.10;99.90;;;;;;5000891;28;20184;-65
2021/04/29 06:09:55;;;;;;;30.43;21.57;;;12.20;99.90;;;;;;4993146;28;20172;-64
2021/04/29 06:12:20;;;;;;;23.60;17.23;;;12.30;99.90;;;;;;5003340;28;20588;-64
2021/04/29 06:14:46;;;;;;;28.20;20.03;;;12.50;99.90;;;;;;5013052;28;20230;-65
2021/04/29 06:17:12;;;;;;;24.73;18.03;;;12.60;99.90;;;;;;5004210;28;20516;-65
2021/04/29 06:19:37;;;;;;;27.90;19.17;;;12.80;99.90;;;;;;4993074;28;20173;-65
2021/04/29 06:22:03;;;;;;;32.50;21.10;;;13.10;99.90;;;;;;4997577;28;20258;-64
2021/04/29 06:24:29;;;;;;;27.50;20.37;;;13.30;99.90;;;;;;5012949;28;20585;-64
2021/04/29 06:26:54;;;;;;;29.43;20.47;;;13.40;99.90;;;;;;5007265;28;20180;-63
2021/04/29 06:29:20;;;;;;;29.10;21.80;;;13.60;99.90;;;;;;5001324;28;20254;-64
2021/04/29 06:31:46;;;;;;;28.57;21.47;;;13.50;99.90;;;;;;5008673;28;20188;-64
2021/04/29 06:34:13;;;;;;;30.47;21.30;;;13.60;99.90;;;;;;4999969;28;20669;-64
2021/04/29 06:36:39;;;;;;;30.83;22.23;;;13.70;99.90;;;;;;5032586;22;20723;-64
2021/04/29 06:39:05;;;;;;;31.37;22.87;;;13.80;99.90;;;;;;5052160;28;20244;-65
2021/04/29 06:41:31;;;;;;;31.03;22.23;;;13.90;99.90;;;;;;5051530;28;20647;-64
2021/04/29 06:43:56;;;;;;;34.40;26.57;;;14.00;99.90;;;;;;5050875;28;20189;-64
2021/04/29 06:46:22;;;;;;;37.37;27.87;;;14.40;99.90;;;;;;5041990;28;20234;-64
2021/04/29 06:48:47;;;;;;;42.60;28.90;;;14.30;99.90;;;;;;5013355;28;20283;-64
2021/04/29 06:51:13;;;;;;;41.73;29.07;;;14.30;99.90;;;;;;5012036;28;20187;-64
2021/04/29 06:53:39;;;;;;;39.53;29.33;;;14.40;99.90;;;;;;5013370;28;20168;-65
2021/04/29 06:56:05;;;;;;;36.87;28.20;;;14.50;99.90;;;;;;5011993;28;20561;-65
2021/04/29 06:58:31;;;;;;;43.03;29.67;;;14.50;99.90;;;;;;5026801;28;20538;-63
2021/04/29 07:00:58;;;;;;;42.27;30.63;;;14.60;99.90;;;;;;5031458;28;20581;-63
2021/04/29 07:03:23;;;;;;;47.17;30.53;;;14.70;99.90;;;;;;5018298;28;20203;-65
2021/04/29 07:05:49;;;;;;;32.57;24.07;;;14.80;99.90;;;;;;5020082;28;20203;-65
2021/04/29 07:08:15;;;;;;;42.20;31.67;;;15.10;99.90;;;;;;5031724;28;20711;-64
2021/04/29 07:10:42;;;;;;;42.93;29.47;;;15.10;99.90;;;;;;5027960;28;20202;-64
2021/04/29 07:13:08;;;;;;;38.67;29.63;;;15.30;99.90;;;;;;5031630;28;20176;-65
2021/04/29 07:15:33;;;;;;;42.53;29.60;;;15.70;99.90;;;;;;5026151;28;20692;-63
2021/04/29 07:18:00;;;;;;;36.97;27.80;;;15.90;99.90;;;;;;5011544;28;20180;-65
2021/04/29 07:20:26;;;;;;;38.83;29.50;;;15.60;99.90;;;;;;5012605;28;20195;-64
2021/04/29 07:22:52;;;;;;;40.33;28.60;;;15.40;99.90;;;;;;5010873;28;20188;-64
2021/04/29 07:25:18;;;;;;;42.43;28.13;;;15.10;99.90;;;;;;5023905;28;20211;-65
2021/04/29 07:27:44;;;;;;;41.13;31.63;;;15.10;99.90;;;;;;5031222;28;20717;-64
2021/04/29 07:30:10;;;;;;;42.10;30.70;;;15.20;99.90;;;;;;5017903;28;20172;-65
2021/04/29 07:32:35;;;;;;;44.43;30.90;;;15.30;99.90;;;;;;5011598;28;20183;-64
2021/04/29 07:35:03;;;;;;;43.50;30.77;;;15.30;99.90;;;;;;5012645;28;20165;-65
2021/04/29 07:37:29;;;;;;;38.33;31.87;;;15.50;99.90;;;;;;5015329;28;20203;-64
2021/04/29 07:39:55;;;;;;;41.13;29.93;;;15.60;99.90;;;;;;5030881;28;20168;-64
2021/04/29 07:42:20;;;;;;;37.67;27.37;;;15.90;99.90;;;;;;5028660;28;20574;-65
2021/04/29 07:44:46;;;;;;;39.80;30.10;;;15.70;99.90;;;;;;5018882;28;20172;-63
2021/04/29 07:47:12;;;;;;;42.73;37.13;;;15.50;99.90;;;;;;5020827;28;20199;-64
2021/04/29 07:49:37;;;;;;;38.80;30.63;;;15.40;99.90;;;;;;5031663;28;20213;-65
2021/04/29 07:52:03;;;;;;;45.20;37.23;;;15.40;99.90;;;;;;5030833;28;20231;-64
2021/04/29 07:54:31;;;;;;;44.20;31.97;;;15.60;99.90;;;;;;5031873;28;20195;-65
2021/04/29 07:56:56;;;;;;;44.80;36.03;;;15.60;99.90;;;;;;5030916;28;20274;-64
2021/04/29 07:59:22;;;;;;;42.43;31.27;;;15.40;99.90;;;;;;5030333;28;20198;-65
2021/04/29 08:01:48;;;;;;;46.50;32.13;;;14.90;99.90;;;;;;5030670;28;20172;-65
2021/04/29 08:04:13;;;;;;;44.43;32.47;;;14.70;99.90;;;;;;5031098;28;20183;-65
2021/04/29 08:06:39;;;;;;;42.80;30.90;;;14.50;99.90;;;;;;5031083;28;20191;-64
2021/04/29 08:09:05;;;;;;;38.07;26.73;;;14.80;99.90;;;;;;5030934;28;20203;-65
2021/04/29 08:11:31;;;;;;;37.97;26.00;;;15.50;99.90;;;;;;5030951;28;20172;-64
2021/04/29 08:13:56;;;;;;;35.27;24.13;;;16.10;99.90;;;;;;5030885;28;20221;-64
2021/04/29 08:16:22;;;;;;;29.07;21.90;;;16.60;99.90;;;;;;5030879;28;20341;-64
2021/04/29 08:18:49;;;;;;;32.53;23.87;;;16.90;99.90;;;;;;5030967;28;20175;-64
2021/04/29 08:21:15;;;;;;;32.67;22.93;;;16.60;99.90;;;;;;5029945;28;20538;-65
2021/04/29 08:23:41;;;;;;;34.80;24.23;;;16.80;99.90;;;;;;5030776;28;20175;-64
2021/04/29 08:26:06;;;;;;;35.00;24.90;;;17.20;99.90;;;;;;5028768;28;20201;-64
2021/04/29 08:28:32;;;;;;;35.38;25.30;;;17.50;99.90;;;;;;5019393;28;20287;-64
2021/04/29 08:30:58;;;;;;;32.17;24.73;;;17.80;99.90;;;;;;5016226;28;20189;-64
2021/04/29 08:33:23;;;;;;;37.22;26.13;;;17.90;99.90;;;;;;5030588;28;20175;-65
2021/04/29 08:35:49;;;;;;;37.05;27.30;;;18.30;99.90;;;;;;5026552;28;20291;-65
2021/04/29 08:38:15;;;;;;;32.45;25.73;;;18.70;99.90;;;;;;5010922;28;20175;-65
2021/04/29 08:40:41;;;;;;;39.22;28.10;;;18.70;99.90;;;;;;5024994;28;20187;-64
2021/04/29 08:43:06;;;;;;;35.10;26.83;;;18.00;99.90;;;;;;5030674;28;20656;-64
2021/04/29 08:45:33;;;;;;;36.00;28.45;;;17.80;99.90;;;;;;5032403;28;20195;-64
2021/04/29 08:47:59;;;;;;;34.50;26.57;;;17.90;99.90;;;;;;5033170;28;20207;-64
2021/04/29 08:50:27;;;;;;;39.33;27.83;;;17.80;99.90;;;;;;5034273;28;20631;-64
2021/04/29 08:52:52;;;;;;;37.28;24.38;;;17.60;99.90;;;;;;5034116;28;20174;-64
2021/04/29 08:55:20;;;;;;;32.35;25.33;;;17.50;99.90;;;;;;5034217;28;20176;-64
2021/04/29 08:57:47;;;;;;;33.35;24.42;;;17.60;99.90;;;;;;5034106;28;20175;-64
2021/04/29 09:00:14;;;;;;;32.30;25.58;;;17.80;99.90;;;;;;5033953;28;20657;-64
2021/04/29 09:02:41;;;;;;;36.23;26.33;;;18.00;99.90;;;;;;5034075;28;20175;-64
2021/04/29 09:05:09;;;;;;;33.95;26.30;;;18.30;99.90;;;;;;5033845;28;20194;-64
2021/04/29 09:07:36;;;;;;;37.40;24.90;;;18.40;99.90;;;;;;5034178;28;20179;-64
2021/04/29 09:10:02;;;;;;;39.00;25.77;;;18.50;99.90;;;;;;5033446;28;20206;-64
2021/04/29 09:12:43;;;;;;;36.22;26.08;;;18.40;99.90;;;;;;5033641;28;20756;-64
2021/04/29 09:15:20;;;;;;;32.17;24.60;;;18.30;99.90;;;;;;5034030;28;20298;-64
2021/04/29 09:17:45;;;;;;;37.07;27.70;;;17.70;99.90;;;;;;5033985;28;20178;-64
2021/04/29 09:20:12;;;;;;;34.73;27.47;;;17.50;99.90;;;;;;5023405;28;20176;-64
2021/04/29 09:22:37;;;;;;;36.13;26.70;;;17.10;99.90;;;;;;5013929;28;20176;-64
2021/04/29 09:25:11;;;;;;;39.83;29.50;;;16.30;99.90;;;;;;5012626;28;20172;-65
2021/04/29 09:27:37;;;;;;;38.80;29.00;;;15.80;99.90;;;;;;5013809;28;20251;-65
2021/04/29 09:30:05;;;;;;;40.23;30.80;;;15.90;99.90;;;;;;5013309;28;20263;-64
2021/04/29 09:32:34;;;;;;;36.83;28.70;;;15.80;99.90;;;;;;5013626;28;20531;-64
2021/04/29 09:35:00;;;;;;;34.83;27.30;;;15.60;99.90;;;;;;5027212;28;20567;-65
2021/04/29 09:37:32;;;;;;;38.87;25.83;;;15.60;99.90;;;;;;5033362;28;20290;-65
2021/04/29 09:40:00;;;;;;;34.53;26.90;;;15.70;99.90;;;;;;5018312;28;20186;-65
2021/04/29 09:42:31;;;;;;;36.37;28.30;;;16.00;99.90;;;;;;5031200;28;20179;-64
2021/04/29 09:44:57;;;;;;;36.73;28.23;;;16.00;99.90;;;;;;5019954;28;20180;-64
2021/04/29 09:47:23;;;;;;;35.77;27.90;;;15.80;99.90;;;;;;5029514;28;20203;-64
2021/04/29 09:49:48;;;;;;;36.37;27.90;;;15.80;99.90;;;;;;5020978;28;20707;-64
2021/04/29 09:52:24;;;;;;;35.57;27.23;;;15.90;99.90;;;;;;5031770;28;20194;-65
2021/04/29 09:54:51;;;;;;;38.33;27.60;;;16.10;99.90;;;;;;5029261;28;20203;-64
2021/04/29 09:57:28;;;;;;;35.67;27.47;;;16.30;99.90;;;;;;5031769;28;20258;-65
2021/04/29 09:59:57;;;;;;;37.13;27.83;;;16.60;99.90;;;;;;5021190;28;20230;-65
2021/04/29 10:02:23;;;;;;;37.07;27.33;;;16.40;99.90;;;;;;5011400;28;20183;-64
2021/04/29 10:04:50;;;;;;;35.23;27.77;;;15.90;99.90;;;;;;5022176;28;20532;-64
2021/04/29 10:07:15;;;;;;;30.77;24.80;;;15.90;99.90;;;;;;5015619;28;20230;-64
2021/04/29 10:09:43;;;;;;;36.50;26.07;;;16.20;99.90;;;;;;5012991;28;20624;-64
2021/04/29 10:12:14;;;;;;;36.57;27.07;;;16.00;99.90;;;;;;5012751;28;20567;-65
2021/04/29 10:14:46;;;;;;;33.23;25.77;;;15.30;99.90;;;;;;5020179;28;20229;-64
2021/04/29 10:17:14;;;;;;;35.27;28.20;;;14.60;99.90;;;;;;5032469;28;20218;-65
2021/04/29 10:19:51;;;;;;;34.87;23.80;;;14.70;99.90;;;;;;5025397;28;20211;-64
2021/04/29 10:22:17;;;;;;;21.50;18.37;;;15.60;99.90;;;;;;5012666;28;20175;-65
2021/04/29 10:24:44;;;;;;;25.70;20.20;;;16.20;99.90;;;;;;5019369;28;20509;-66
2021/04/29 10:27:12;;;;;;;20.97;18.00;;;16.60;99.90;;;;;;5032509;28;20571;-65
2021/04/29 10:29:39;;;;;;;24.30;20.48;;;17.50;99.90;;;;;;5026193;28;20247;-65
2021/04/29 10:32:10;;;;;;;21.67;17.23;;;17.70;99.90;;;;;;5012084;28;20660;-64
2021/04/29 10:34:49;;;;;;;23.63;20.03;;;17.50;99.90;;;;;;5017328;28;20199;-65
2021/04/29 10:37:21;;;;;;;24.17;19.37;;;17.00;99.90;;;;;;5032257;28;20207;-64
2021/04/29 10:40:03;;;;;;;28.13;20.60;;;16.60;99.90;;;;;;5024896;28;20230;-64
2021/04/29 10:42:30;;;;;;;24.80;18.80;;;16.00;99.90;;;;;;5012437;28;20188;-64
2021/04/29 10:45:08;;;;;;;25.97;20.67;;;15.30;99.90;;;;;;5018447;28;20190;-65
2021/04/29 10:47:35;;;;;;;23.27;19.57;;;14.80;99.90;;;;;;5031951;28;20184;-65
2021/04/29 10:50:16;;;;;;;12.53;10.23;;;14.40;99.90;;;;;;5024689;28;20184;-64
2021/04/29 10:52:56;;;;;;;10.43;8.83;;;13.80;99.90;;;;;;5024759;28;20172;-65
2021/04/29 10:55:33;;;;;;;18.53;14.60;;;13.40;99.90;;;;;;5023178;28;20506;-65
2021/04/29 10:58:00;;;;;;;22.33;16.37;;;13.10;99.90;;;;;;5012272;28;20230;-65
2021/04/29 11:00:28;;;;;;;20.90;16.47;;;12.80;99.90;;;;;;5020222;28;20233;-65
2021/04/29 11:03:05;;;;;;;19.80;15.60;;;12.40;99.90;;;;;;5031747;28;20171;-64
2021/04/29 11:05:32;;;;;;;19.67;13.60;;;11.90;99.90;;;;;;5023009;28;20238;-64
2021/04/29 11:08:06;;;;;;;17.47;12.23;;;11.30;99.90;;;;;;5011386;28;20207;-64
2021/04/29 11:10:33;;;;;;;17.90;11.03;;;10.50;99.90;;;;;;5019870;28;20179;-65
2021/04/29 11:13:00;;;;;;;20.47;12.63;;;10.10;99.90;;;;;;5031755;28;20179;-65
2021/04/29 11:15:27;;;;;;;31.30;15.37;;;10.10;99.90;;;;;;5024953;28;20712;-65
2021/04/29 11:18:16;;;;;;;286.27;80.50;;;10.10;99.90;;;;;;5012022;28;20588;-64
2021/04/29 11:20:43;;;;;;;12.37;9.47;;;10.60;99.90;;;;;;5019396;28;20176;-64
2021/04/29 11:23:09;;;;;;;10.73;9.37;;;11.20;99.90;;;;;;5031476;28;20171;-64
2021/04/29 11:25:37;;;;;;;14.43;11.37;;;11.70;99.90;;;;;;5023484;28;20685;-64
2021/04/29 11:28:03;;;;;;;16.83;11.10;;;12.10;99.90;;;;;;5020283;28;20293;-64
2021/04/29 11:30:29;;;;;;;830.23;359.00;;;12.60;99.90;;;;;;5028153;28;20274;-64
2021/04/29 11:33:00;;;;;;;16.17;14.10;;;13.50;99.90;;;;;;5011672;28;20192;-64
2021/04/29 11:35:30;;;;;;;18.27;15.37;;;14.00;99.90;;;;;;5016447;28;20258;-65
2021/04/29 11:37:56;;;;;;;18.40;16.33;;;14.20;99.90;;;;;;5031220;28;20186;-64
2021/04/29 11:40:24;;;;;;;16.03;14.37;;;14.40;99.90;;;;;;5026796;28;20538;-65
2021/04/29 11:42:54;;;;;;;13.90;12.43;;;14.10;99.90;;;;;;5011468;28;20216;-65
2021/04/29 11:45:22;;;;;;;14.13;12.73;;;13.90;99.90;;;;;;5014342;28;20218;-64
2021/04/29 11:48:11;;;;;;;15.70;14.10;;;13.80;99.90;;;;;;5031104;28;20168;-64
2021/04/29 11:50:57;;;;;;;14.90;13.40;;;13.60;99.90;;;;;;5026084;28;20176;-65
2021/04/29 11:53:25;;;;;;;15.37;12.73;;;13.50;99.90;;;;;;5020159;28;20687;-64
2021/04/29 11:56:04;;;;;;;15.50;12.73;;;13.50;99.90;;;;;;5011260;28;20180;-65
2021/04/29 11:58:30;;;;;;;15.63;13.13;;;13.60;99.90;;;;;;5014204;28;20172;-64
2021/04/29 12:00:56;;;;;;;13.57;10.60;;;13.10;99.90;;;;;;5030639;28;20213;-64
2021/04/29 12:03:28;;;;;;;12.00;10.07;;;12.50;99.90;;;;;;5029854;28;20234;-64
2021/04/29 12:05:58;;;;;;;8.77;7.87;;;11.60;99.90;;;;;;5011336;28;20733;-63
2021/04/29 12:08:32;;;;;;;8.37;7.33;;;11.20;99.90;;;;;;5011725;28;20204;-65
2021/04/29 12:11:06;;;;;;;13.23;10.37;;;10.90;99.90;;;;;;5030690;28;20547;-65
2021/04/29 12:13:38;;;;;;;10.60;9.23;;;10.70;99.90;;;;;;5030424;28;20213;-64
2021/04/29 12:16:12;;;;;;;12.97;10.97;;;10.70;99.90;;;;;;5011881;28;20212;-65
2021/04/29 12:18:42;;;;;;;15.17;10.30;;;10.70;99.90;;;;;;5012679;28;20227;-64
2021/04/29 12:21:09;;;;;;;11.27;8.13;;;11.10;99.90;;;;;;5035257;28;20241;-64
2021/04/29 12:23:35;;;;;;;19.67;11.50;;;11.50;99.90;;;;;;5027705;28;20226;-64
2021/04/29 12:26:01;;;;;;;11.40;8.87;;;11.80;99.90;;;;;;5015597;28;20200;-64
2021/04/29 12:28:38;;;;;;;14.33;9.60;;;12.20;99.90;;;;;;5024197;28;20206;-65
2021/04/29 12:31:21;;;;;;;12.27;8.57;;;12.40;99.90;;;;;;5034497;28;20175;-64
2021/04/29 12:33:55;;;;;;;13.17;9.23;;;12.40;99.90;;;;;;5023179;28;20587;-64